createdAt,value
2018-12-22T00:00:07.327Z,98.27
2018-12-22T00:01:07.319Z,97.89
2018-12-22T00:02:07.309Z,98.36
2018-12-22T00:03:07.315Z,98.27
2018-12-22T00:04:07.287Z,98.56
2018-12-22T00:05:07.279Z,98.18
2018-12-22T00:06:07.272Z,97.99
2018-12-22T00:07:07.520Z,97.99
2018-12-22T00:08:07.252Z,97.7
2018-12-22T00:09:07.243Z,97.7
2018-12-22T00:10:07.232Z,97.41
2018-12-22T00:11:07.222Z,97.36
2018-12-22T00:12:07.214Z,97.46
2018-12-22T00:13:07.207Z,97.65
2018-12-22T00:14:07.199Z,97.56
2018-12-22T00:15:07.290Z,97.36
2018-12-22T00:16:07.261Z,97.65
2018-12-22T00:17:07.169Z,97.36
2018-12-22T00:18:07.158Z,97.27
2018-12-22T00:19:07.147Z,97.36
2018-12-22T00:20:07.139Z,97.46
2018-12-22T00:21:07.129Z,97.27
2018-12-22T00:22:07.119Z,97.17
2018-12-22T00:23:07.115Z,96.89
2018-12-22T00:24:07.101Z,97.08
2018-12-22T00:25:07.090Z,97.08
2018-12-22T00:26:07.081Z,96.98
2018-12-22T00:27:07.069Z,96.8
2018-12-22T00:28:07.063Z,96.51
2018-12-22T00:29:07.052Z,96.32
2018-12-22T00:30:07.044Z,96.8
2018-12-22T00:31:07.033Z,96.08
2018-12-22T00:32:07.021Z,96.32
2018-12-22T00:33:07.013Z,96.27
2018-12-22T00:34:07.004Z,96.17
2018-12-22T00:35:06.992Z,96.27
2018-12-22T00:36:07.066Z,95.98
2018-12-22T00:37:06.972Z,96.17
2018-12-22T00:38:07.262Z,96.46
2018-12-22T00:39:06.957Z,96.55
2018-12-22T00:40:06.946Z,95.98
2018-12-22T00:41:06.934Z,96.08
2018-12-22T00:42:06.925Z,96.84
2018-12-22T00:43:06.925Z,96.27
2018-12-22T00:44:06.909Z,96.65
2018-12-22T00:45:06.894Z,96.75
2018-12-22T00:46:06.885Z,96.65
2018-12-22T00:47:06.879Z,96.27
2018-12-22T00:48:06.866Z,96.55
2018-12-22T00:49:06.949Z,96.27
2018-12-22T00:50:06.914Z,96.46
2018-12-22T00:51:06.835Z,96.75
2018-12-22T00:52:06.828Z,96.27
2018-12-22T00:53:06.821Z,96.46
2018-12-22T00:54:06.806Z,96.75
2018-12-22T00:55:06.795Z,96.46
2018-12-22T00:56:06.784Z,96.46
2018-12-22T00:57:06.779Z,96.46
2018-12-22T00:58:06.768Z,96.27
2018-12-22T00:59:06.752Z,96.46
2018-12-22T01:00:06.744Z,96.55
2018-12-22T01:01:06.734Z,96.75
2018-12-22T01:02:06.804Z,96.75
2018-12-22T01:03:06.714Z,96.84
2018-12-22T01:04:06.704Z,96.75
2018-12-22T01:05:06.696Z,96.7
2018-12-22T01:06:06.684Z,96.65
2018-12-22T01:07:06.680Z,96.31
2018-12-22T01:08:06.667Z,96.51
2018-12-22T01:09:07.006Z,96.51
2018-12-22T01:10:06.642Z,97.36
2018-12-22T01:11:06.630Z,97.27
2018-12-22T01:12:06.623Z,96.6
2018-12-22T01:13:06.614Z,96.79
2018-12-22T01:14:06.598Z,97.27
2018-12-22T01:15:06.594Z,97.08
2018-12-22T01:16:06.581Z,97.17
2018-12-22T01:17:06.572Z,97.27
2018-12-22T01:18:06.560Z,97.27
2018-12-22T01:19:06.547Z,97.17
2018-12-22T01:20:06.538Z,96.79
2018-12-22T01:21:06.526Z,96.89
2018-12-22T01:22:06.523Z,96.6
2018-12-22T01:23:06.507Z,96.79
2018-12-22T01:24:06.494Z,96.7
2018-12-22T01:25:06.484Z,97.08
2018-12-22T01:26:06.472Z,96.7
2018-12-22T01:27:06.469Z,97.08
2018-12-22T01:28:06.454Z,96.98
2018-12-22T01:29:06.444Z,96.79
2018-12-22T01:30:06.440Z,97.08
2018-12-22T01:31:06.424Z,97.27
2018-12-22T01:32:06.410Z,96.31
2018-12-22T01:33:06.399Z,96.46
2018-12-22T01:34:06.391Z,96.51
2018-12-22T01:35:06.380Z,96.7
2018-12-22T01:36:06.371Z,96.36
2018-12-22T01:37:06.359Z,96.17
2018-12-22T01:38:06.347Z,96.27
2018-12-22T01:39:06.339Z,95.89
2018-12-22T01:40:06.327Z,95.98
2018-12-22T01:41:06.321Z,95.89
2018-12-22T01:42:06.308Z,96.27
2018-12-22T01:43:06.295Z,96.17
2018-12-22T01:44:06.285Z,96.08
2018-12-22T01:45:06.282Z,95.89
2018-12-22T01:46:06.264Z,96.36
2018-12-22T01:47:06.255Z,96.17
2018-12-22T01:48:06.243Z,95.98
2018-12-22T01:49:06.234Z,95.98
2018-12-22T01:50:06.224Z,95.79
2018-12-22T01:51:06.213Z,96.36
2018-12-22T01:52:06.205Z,95.98
2018-12-22T01:53:06.193Z,95.51
2018-12-22T01:54:06.184Z,95.89
2018-12-22T01:55:06.180Z,95.98
2018-12-22T01:56:06.164Z,95.98
2018-12-22T01:57:06.150Z,95.89
2018-12-22T01:58:06.140Z,95.6
2018-12-22T01:59:06.129Z,95.51
2018-12-22T02:00:06.126Z,95.51
2018-12-22T02:01:06.111Z,95.32
2018-12-22T02:02:06.100Z,95.41
2018-12-22T02:03:06.089Z,95.41
2018-12-22T02:04:06.083Z,95.41
2018-12-22T02:05:06.070Z,95.41
2018-12-22T02:06:06.060Z,94.93
2018-12-22T02:07:06.048Z,94.84
2018-12-22T02:08:06.043Z,95.12
2018-12-22T02:09:06.028Z,94.93
2018-12-22T02:10:06.018Z,94.93
2018-12-22T02:11:06.009Z,95.32
2018-12-22T02:12:05.997Z,95.41
2018-12-22T02:13:05.986Z,95.7
2018-12-22T02:14:05.978Z,95.98
2018-12-22T02:15:06.049Z,96.17
2018-12-22T02:16:05.969Z,96.36
2018-12-22T02:17:05.946Z,96.46
2018-12-22T02:18:05.935Z,96.46
2018-12-22T02:19:05.925Z,96.46
2018-12-22T02:20:05.915Z,96.36
2018-12-22T02:21:05.906Z,96.75
2018-12-22T02:22:05.898Z,96.94
2018-12-22T02:23:05.885Z,96.89
2018-12-22T02:24:05.875Z,96.84
2018-12-22T02:25:05.864Z,96.89
2018-12-22T02:26:05.854Z,97.13
2018-12-22T02:27:05.844Z,97.17
2018-12-22T02:28:05.833Z,97.22
2018-12-22T02:29:05.825Z,97.08
2018-12-22T02:30:05.826Z,96.98
2018-12-22T02:31:05.820Z,97.08
2018-12-22T02:32:05.793Z,97.27
2018-12-22T02:33:05.799Z,97.6
2018-12-22T02:34:05.777Z,97.27
2018-12-22T02:35:05.779Z,97.41
2018-12-22T02:36:05.753Z,97.08
2018-12-22T02:37:05.743Z,97.27
2018-12-22T02:38:05.730Z,96.6
2018-12-22T02:39:05.719Z,97.36
2018-12-22T02:40:05.708Z,97.55
2018-12-22T02:41:05.701Z,97.27
2018-12-22T02:42:05.690Z,97.27
2018-12-22T02:43:05.692Z,97.46
2018-12-22T02:44:05.671Z,97.46
2018-12-22T02:45:05.664Z,97.36
2018-12-22T02:46:05.651Z,96.98
2018-12-22T02:47:05.636Z,97.08
2018-12-22T02:48:05.626Z,96.7
2018-12-22T02:49:05.613Z,97.08
2018-12-22T02:50:05.608Z,97.17
2018-12-22T02:51:05.592Z,96.31
2018-12-22T02:52:05.582Z,96.89
2018-12-22T02:53:05.573Z,96.79
2018-12-22T02:54:05.560Z,96.7
2018-12-22T02:55:05.554Z,96.89
2018-12-22T02:56:05.539Z,96.65
2018-12-22T02:57:05.533Z,96.7
2018-12-22T02:58:05.523Z,96.6
2018-12-22T02:59:08.802Z,96.31
2018-12-22T03:00:05.501Z,96.41
2018-12-22T03:01:05.492Z,96.31
2018-12-22T03:02:05.476Z,96.03
2018-12-22T03:03:05.470Z,95.51
2018-12-22T03:04:05.458Z,95.41
2018-12-22T03:05:05.448Z,95.65
2018-12-22T03:06:05.438Z,95.6
2018-12-22T03:07:05.425Z,95.32
2018-12-22T03:08:05.417Z,95.51
2018-12-22T03:09:05.403Z,95.7
2018-12-22T03:10:05.399Z,95.89
2018-12-22T03:11:05.384Z,95.79
2018-12-22T03:12:05.384Z,95.89
2018-12-22T03:13:05.364Z,96.08
2018-12-22T03:14:05.602Z,95.89
2018-12-22T03:15:05.337Z,95.51
2018-12-22T03:16:05.327Z,95.98
2018-12-22T03:17:05.313Z,95.41
2018-12-22T03:18:05.308Z,95.32
2018-12-22T03:19:05.297Z,95.51
2018-12-22T03:20:05.287Z,95.65
2018-12-22T03:21:05.274Z,95.17
2018-12-22T03:22:05.261Z,94.98
2018-12-22T03:23:05.251Z,94.89
2018-12-22T03:24:05.245Z,94.7
2018-12-22T03:25:05.230Z,95.27
2018-12-22T03:26:05.220Z,94.65
2018-12-22T03:27:05.211Z,95.08
2018-12-22T03:28:05.197Z,95.17
2018-12-22T03:29:05.196Z,94.79
2018-12-22T03:30:05.182Z,95.17
2018-12-22T03:31:05.169Z,94.7
2018-12-22T03:32:05.160Z,94.79
2018-12-22T03:33:05.150Z,95.08
2018-12-22T03:34:05.132Z,94.32
2018-12-22T03:35:05.126Z,94.89
2018-12-22T03:36:05.111Z,94.79
2018-12-22T03:37:05.098Z,94.22
2018-12-22T03:38:05.087Z,94.51
2018-12-22T03:39:05.086Z,94.03
2018-12-22T03:40:05.073Z,94.42
2018-12-22T03:41:05.059Z,94.32
2018-12-22T03:42:05.066Z,94.22
2018-12-22T03:43:05.033Z,94.42
2018-12-22T03:44:05.024Z,94.32
2018-12-22T03:45:05.377Z,94.22
2018-12-22T03:46:05.002Z,94.22
2018-12-22T03:47:04.996Z,94.42
2018-12-22T03:48:04.989Z,94.13
2018-12-22T03:49:04.970Z,94.32
2018-12-22T03:50:04.959Z,93.55
2018-12-22T03:51:04.962Z,93.46
2018-12-22T03:52:04.940Z,93.74
2018-12-22T03:53:04.933Z,93.55
2018-12-22T03:54:04.916Z,93.74
2018-12-22T03:55:04.909Z,93.65
2018-12-22T03:56:04.903Z,93.37
2018-12-22T03:57:04.882Z,93.74
2018-12-22T03:58:04.874Z,93.37
2018-12-22T03:59:04.860Z,93.37
2018-12-22T04:00:04.857Z,92.99
2018-12-22T04:01:04.845Z,93.74
2018-12-22T04:02:04.829Z,92.99
2018-12-22T04:03:04.820Z,93.55
2018-12-22T04:04:04.808Z,93.55
2018-12-22T04:05:04.810Z,93.37
2018-12-22T04:06:04.785Z,92.7
2018-12-22T04:07:04.778Z,92.89
2018-12-22T04:08:04.779Z,93.08
2018-12-22T04:09:04.753Z,93.18
2018-12-22T04:10:04.744Z,93.27
2018-12-22T04:11:04.737Z,93.27
2018-12-22T04:12:04.724Z,92.79
2018-12-22T04:13:04.713Z,92.51
2018-12-22T04:14:04.709Z,92.99
2018-12-22T04:15:04.690Z,92.7
2018-12-22T04:16:04.936Z,92.99
2018-12-22T04:17:04.679Z,92.99
2018-12-22T04:18:04.661Z,92.03
2018-12-22T04:19:04.649Z,92.51
2018-12-22T04:20:04.636Z,92.13
2018-12-22T04:21:04.625Z,92.41
2018-12-22T04:22:04.626Z,92.22
2018-12-22T04:23:04.606Z,92.32
2018-12-22T04:24:04.595Z,92.6
2018-12-22T04:25:04.587Z,92.79
2018-12-22T04:26:04.575Z,92.41
2018-12-22T04:27:04.560Z,92.41
2018-12-22T04:28:04.552Z,92.41
2018-12-22T04:29:04.425Z,92.32
2018-12-22T04:30:04.303Z,92.41
2018-12-22T04:31:04.524Z,92.79
2018-12-22T04:32:04.514Z,92.89
2018-12-22T04:33:04.503Z,92.6
2018-12-22T04:34:04.491Z,92.32
2018-12-22T04:35:04.484Z,92.32
2018-12-22T04:36:04.471Z,92.99
2018-12-22T04:37:04.462Z,92.51
2018-12-22T04:38:04.462Z,92.41
2018-12-22T04:39:04.437Z,92.32
2018-12-22T04:40:04.433Z,92.79
2018-12-22T04:41:04.413Z,92.51
2018-12-22T04:42:04.402Z,93.08
2018-12-22T04:43:04.393Z,92.03
2018-12-22T04:44:04.382Z,92.6
2018-12-22T04:45:04.383Z,92.51
2018-12-22T04:46:04.363Z,92.51
2018-12-22T04:47:04.349Z,92.51
2018-12-22T04:48:04.350Z,92.32
2018-12-22T04:49:04.334Z,92.22
2018-12-22T04:50:04.342Z,92.32
2018-12-22T04:51:04.309Z,92.22
2018-12-22T04:52:04.307Z,92.03
2018-12-22T04:53:04.298Z,92.22
2018-12-22T04:54:04.274Z,92.32
2018-12-22T04:55:04.277Z,92.13
2018-12-22T04:56:04.261Z,92.32
2018-12-22T04:57:04.241Z,92.7
2018-12-22T04:58:04.233Z,92.13
2018-12-22T04:59:04.227Z,92.03
2018-12-22T05:00:04.217Z,92.22
2018-12-22T05:01:04.201Z,92.7
2018-12-22T05:02:04.202Z,92.32
2018-12-22T05:03:04.182Z,92.13
2018-12-22T05:04:04.170Z,92.13
2018-12-22T05:05:04.157Z,92.22
2018-12-22T05:06:04.171Z,92.32
2018-12-22T05:07:04.141Z,91.65
2018-12-22T05:08:04.129Z,92.13
2018-12-22T05:09:04.118Z,92.41
2018-12-22T05:10:04.105Z,92.22
2018-12-22T05:11:04.094Z,92.32
2018-12-22T05:12:04.094Z,92.22
2018-12-22T05:13:04.074Z,92.6
2018-12-22T05:14:04.081Z,92.41
2018-12-22T05:15:04.070Z,92.6
2018-12-22T05:16:04.042Z,92.41
2018-12-22T05:17:04.031Z,92.32
2018-12-22T05:18:04.018Z,92.32
2018-12-22T05:19:04.006Z,92.32
2018-12-22T05:20:04.000Z,92.13
2018-12-22T05:21:03.992Z,92.41
2018-12-22T05:22:03.979Z,92.51
2018-12-22T05:23:03.965Z,92.32
2018-12-22T05:24:03.958Z,92.22
2018-12-22T05:25:03.963Z,92.99
2018-12-22T05:26:03.936Z,92.89
2018-12-22T05:27:03.924Z,92.6
2018-12-22T05:28:03.914Z,92.6
2018-12-22T05:29:03.900Z,92.89
2018-12-22T05:30:03.896Z,92.03
2018-12-22T05:31:03.880Z,92.89
2018-12-22T05:32:03.902Z,92.89
2018-12-22T05:33:03.860Z,92.89
2018-12-22T05:34:03.850Z,92.7
2018-12-22T05:35:03.856Z,92.6
2018-12-22T05:36:03.829Z,93.08
2018-12-22T05:37:03.818Z,92.79
2018-12-22T05:38:03.808Z,92.79
2018-12-22T05:39:03.797Z,92.79
2018-12-22T05:40:03.787Z,92.99
2018-12-22T05:41:03.773Z,92.89
2018-12-22T05:42:03.769Z,93.08
2018-12-22T05:43:03.761Z,92.89
2018-12-22T05:44:03.747Z,92.89
2018-12-22T05:45:03.732Z,92.6
2018-12-22T05:46:03.720Z,93.37
2018-12-22T05:47:03.714Z,93.18
2018-12-22T05:48:03.705Z,93.27
2018-12-22T05:49:03.689Z,93.37
2018-12-22T05:50:03.684Z,93.27
2018-12-22T05:51:03.668Z,93.18
2018-12-22T05:52:03.658Z,93.37
2018-12-22T05:53:03.647Z,93.37
2018-12-22T05:54:03.637Z,93.18
2018-12-22T05:55:03.627Z,93.37
2018-12-22T05:56:03.618Z,93.46
2018-12-22T05:57:03.605Z,93.94
2018-12-22T05:58:03.596Z,93.65
2018-12-22T05:59:03.584Z,93.94
2018-12-22T06:00:03.576Z,94.03
2018-12-22T06:01:03.564Z,94.13
2018-12-22T06:02:03.609Z,93.94
2018-12-22T06:03:03.539Z,94.03
2018-12-22T06:04:03.531Z,94.22
2018-12-22T06:05:03.521Z,94.22
2018-12-22T06:06:03.513Z,94.6
2018-12-22T06:07:03.497Z,94.22
2018-12-22T06:08:03.491Z,94.79
2018-12-22T06:09:03.477Z,93.84
2018-12-22T06:10:03.466Z,94.51
2018-12-22T06:11:03.526Z,94.6
2018-12-22T06:12:03.455Z,93.94
2018-12-22T06:13:03.439Z,94.6
2018-12-22T06:14:03.428Z,94.79
2018-12-22T06:15:03.426Z,94.89
2018-12-22T06:16:03.404Z,94.7
2018-12-22T06:17:03.392Z,94.7
2018-12-22T06:18:03.382Z,94.98
2018-12-22T06:19:03.379Z,94.6
2018-12-22T06:20:03.359Z,94.7
2018-12-22T06:21:03.607Z,94.89
2018-12-22T06:22:03.349Z,94.42
2018-12-22T06:23:03.327Z,94.42
2018-12-22T06:24:03.318Z,95.27
2018-12-22T06:25:03.308Z,94.79
2018-12-22T06:26:03.300Z,94.79
2018-12-22T06:27:03.285Z,94.79
2018-12-22T06:28:03.275Z,95.17
2018-12-22T06:29:03.265Z,95.03
2018-12-22T06:30:11.485Z,94.84
2018-12-22T06:31:03.243Z,95.12
2018-12-22T06:32:03.235Z,94.89
2018-12-22T06:33:03.222Z,95.22
2018-12-22T06:34:03.210Z,95.41
2018-12-22T06:35:03.200Z,95.46
2018-12-22T06:36:03.186Z,95.32
2018-12-22T06:37:03.178Z,95.32
2018-12-22T06:38:03.197Z,95.36
2018-12-22T06:39:03.165Z,95.41
2018-12-22T06:40:03.263Z,95.46
2018-12-22T06:41:03.135Z,95.46
2018-12-22T06:42:03.126Z,94.89
2018-12-22T06:43:03.113Z,94.89
2018-12-22T06:44:03.101Z,94.93
2018-12-22T06:45:03.100Z,95.36
2018-12-22T06:46:03.082Z,94.89
2018-12-22T06:47:03.069Z,94.98
2018-12-22T06:48:03.063Z,95.17
2018-12-22T06:49:03.129Z,94.89
2018-12-22T06:50:03.041Z,95.08
2018-12-22T06:51:03.028Z,95.17
2018-12-22T06:52:03.271Z,94.79
2018-12-22T06:53:03.005Z,94.79
2018-12-22T06:54:02.999Z,95.03
2018-12-22T06:55:02.986Z,95.32
2018-12-22T06:56:02.979Z,95.17
2018-12-22T06:57:02.976Z,94.84
2018-12-22T06:58:02.950Z,94.89
2018-12-22T06:59:02.938Z,95.12
2018-12-22T07:00:02.948Z,95.12
2018-12-22T07:01:02.917Z,94.51
2018-12-22T07:02:02.907Z,95.08
2018-12-22T07:03:02.897Z,94.93
2018-12-22T07:04:02.892Z,94.98
2018-12-22T07:05:04.949Z,95.03
2018-12-22T07:06:02.865Z,94.74
2018-12-22T07:07:02.856Z,94.98
2018-12-22T07:08:02.843Z,95.03
2018-12-22T07:09:02.831Z,95.12
2018-12-22T07:10:03.032Z,94.56
2018-12-22T07:11:02.813Z,94.7
2018-12-22T07:12:02.800Z,94.84
2018-12-22T07:13:03.088Z,94.79
2018-12-22T07:14:02.780Z,94.74
2018-12-22T07:15:02.766Z,94.98
2018-12-22T07:16:02.766Z,94.7
2018-12-22T07:17:02.745Z,94.89
2018-12-22T07:18:02.732Z,94.84
2018-12-22T07:19:02.721Z,94.98
2018-12-22T07:20:02.808Z,95.08
2018-12-22T07:21:02.700Z,94.98
2018-12-22T07:22:02.696Z,94.6
2018-12-22T07:23:02.930Z,94.7
2018-12-22T07:24:02.427Z,94.7
2018-12-22T07:25:02.665Z,94.32
2018-12-22T07:26:02.647Z,94.56
2018-12-22T07:27:02.636Z,94.7
2018-12-22T07:28:02.629Z,94.56
2018-12-22T07:29:02.615Z,94.6
2018-12-22T07:30:02.604Z,94.7
2018-12-22T07:31:02.600Z,94.6
2018-12-22T07:32:02.583Z,94.74
2018-12-22T07:33:02.572Z,94.84
2018-12-22T07:34:02.560Z,94.7
2018-12-22T07:35:02.680Z,95.17
2018-12-22T07:36:02.540Z,94.74
2018-12-22T07:37:02.529Z,94.56
2018-12-22T07:38:02.520Z,94.74
2018-12-22T07:39:02.508Z,95.03
2018-12-22T07:40:02.687Z,94.93
2018-12-22T07:41:02.488Z,95.32
2018-12-22T07:42:02.475Z,95.32
2018-12-22T07:43:02.467Z,95.6
2018-12-22T07:44:02.453Z,95.12
2018-12-22T07:45:02.443Z,95.51
2018-12-22T07:46:02.435Z,95.98
2018-12-22T07:47:02.420Z,95.89
2018-12-22T07:48:02.412Z,96.17
2018-12-22T07:49:02.399Z,96.17
2018-12-22T07:50:02.388Z,95.89
2018-12-22T07:51:02.378Z,96.17
2018-12-22T07:52:02.367Z,95.98
2018-12-22T07:53:02.354Z,96.08
2018-12-22T07:54:02.344Z,96.36
2018-12-22T07:55:02.334Z,96.08
2018-12-22T07:56:02.321Z,96.55
2018-12-22T07:57:02.310Z,96.55
2018-12-22T07:58:02.301Z,96.74
2018-12-22T07:59:02.291Z,96.74
2018-12-22T08:00:02.277Z,96.74
2018-12-22T08:01:02.271Z,96.46
2018-12-22T08:02:02.258Z,96.74
2018-12-22T08:03:02.267Z,96.74
2018-12-22T08:04:02.233Z,96.36
2018-12-22T08:05:02.223Z,95.98
2018-12-22T08:06:02.211Z,96.26
2018-12-22T08:07:02.204Z,96.08
2018-12-22T08:08:02.189Z,96.36
2018-12-22T08:09:02.183Z,96.17
2018-12-22T08:10:02.168Z,96.17
2018-12-22T08:11:02.157Z,96.17
2018-12-22T08:12:02.167Z,96.08
2018-12-22T08:13:02.134Z,95.89
2018-12-22T08:14:02.126Z,96.08
2018-12-22T08:15:02.113Z,95.89
2018-12-22T08:16:02.111Z,95.98
2018-12-22T08:17:02.091Z,95.98
2018-12-22T08:18:02.082Z,95.89
2018-12-22T08:19:02.183Z,95.7
2018-12-22T08:20:02.058Z,96.08
2018-12-22T08:21:02.050Z,96.55
2018-12-22T08:22:02.036Z,95.89
2018-12-22T08:23:02.026Z,96.08
2018-12-22T08:24:02.015Z,95.89
2018-12-22T08:25:02.007Z,95.94
2018-12-22T08:26:01.993Z,96.26
2018-12-22T08:27:01.989Z,96.36
2018-12-22T08:28:01.971Z,96.08
2018-12-22T08:29:01.961Z,95.98
2018-12-22T08:30:01.952Z,96.08
2018-12-22T08:31:01.940Z,96.17
2018-12-22T08:32:01.928Z,95.98
2018-12-22T08:33:01.918Z,95.89
2018-12-22T08:34:01.909Z,96.22
2018-12-22T08:35:01.898Z,96.17
2018-12-22T08:36:01.898Z,96.03
2018-12-22T08:37:01.875Z,95.84
2018-12-22T08:38:01.869Z,95.94
2018-12-22T08:39:01.854Z,95.56
2018-12-22T08:40:01.843Z,95.56
2018-12-22T08:41:01.897Z,95.27
2018-12-22T08:42:01.830Z,94.89
2018-12-22T08:43:01.811Z,95.17
2018-12-22T08:44:01.802Z,95.08
2018-12-22T08:45:01.790Z,95.08
2018-12-22T08:46:01.781Z,94.89
2018-12-22T08:47:01.770Z,94.6
2018-12-22T08:48:01.758Z,94.42
2018-12-22T08:49:01.748Z,94.22
2018-12-22T08:50:08.897Z,94.79
2018-12-22T08:51:02.767Z,94.32
2018-12-22T08:52:01.720Z,94.13
2018-12-22T08:53:01.711Z,94.03
2018-12-22T08:54:01.697Z,93.98
2018-12-22T08:55:01.686Z,94.13
2018-12-22T08:56:01.678Z,94.27
2018-12-22T08:57:01.664Z,94.13
2018-12-22T08:58:01.656Z,94.46
2018-12-22T08:59:01.653Z,93.6
2018-12-22T09:00:01.634Z,93.89
2018-12-22T09:01:01.629Z,93.84
2018-12-22T09:02:01.615Z,93.6
2018-12-22T09:03:01.604Z,93.79
2018-12-22T09:04:01.595Z,93.89
2018-12-22T09:05:01.586Z,93.98
2018-12-22T09:06:01.574Z,93.89
2018-12-22T09:07:01.561Z,93.89
2018-12-22T09:08:01.553Z,93.32
2018-12-22T09:09:01.540Z,93.7
2018-12-22T09:10:01.563Z,93.13
2018-12-22T09:11:01.521Z,93.22
2018-12-22T09:12:01.511Z,93.6
2018-12-22T09:13:01.501Z,93.6
2018-12-22T09:14:01.488Z,93.6
2018-12-22T09:15:01.482Z,93.41
2018-12-22T09:16:01.471Z,93.32
2018-12-22T09:17:01.460Z,93.41
2018-12-22T09:18:01.451Z,93.6
2018-12-22T09:19:01.444Z,93.32
2018-12-22T09:20:01.429Z,93.32
2018-12-22T09:21:01.422Z,93.32
2018-12-22T09:22:01.417Z,93.79
2018-12-22T09:23:01.401Z,94.17
2018-12-22T09:24:01.391Z,94.17
2018-12-22T09:25:01.383Z,94.17
2018-12-22T09:26:01.379Z,94.17
2018-12-22T09:27:01.360Z,93.79
2018-12-22T09:28:01.352Z,94.46
2018-12-22T09:29:01.340Z,93.98
2018-12-22T09:30:01.340Z,93.98
2018-12-22T09:31:03.500Z,94.17
2018-12-22T09:32:01.312Z,93.89
2018-12-22T09:33:01.301Z,94.17
2018-12-22T09:34:01.293Z,94.17
2018-12-22T09:35:01.282Z,94.17
2018-12-22T09:36:01.271Z,94.17
2018-12-22T09:37:01.266Z,93.98
2018-12-22T09:38:01.262Z,93.7
2018-12-22T09:39:01.242Z,93.51
2018-12-22T09:40:01.236Z,93.51
2018-12-22T09:41:01.220Z,93.7
2018-12-22T09:42:01.211Z,93.7
2018-12-22T09:43:01.210Z,94.56
2018-12-22T09:44:01.191Z,94.37
2018-12-22T09:45:01.180Z,94.65
2018-12-22T09:46:01.171Z,95.12
2018-12-22T09:47:01.164Z,94.84
2018-12-22T09:48:01.163Z,95.32
2018-12-22T09:49:01.140Z,95.12
2018-12-22T09:50:01.211Z,95.32
2018-12-22T09:51:01.120Z,95.32
2018-12-22T09:52:01.111Z,95.03
2018-12-22T09:53:04.130Z,94.93
2018-12-22T09:54:01.145Z,95.03
2018-12-22T09:55:01.082Z,95.51
2018-12-22T09:56:01.070Z,95.03
2018-12-22T09:57:01.060Z,95.32
2018-12-22T09:58:01.053Z,95.51
2018-12-22T09:59:01.289Z,95.56
2018-12-22T10:00:01.028Z,95.89
2018-12-22T10:01:09.091Z,95.41
2018-12-22T10:02:01.010Z,95.89
2018-12-22T10:03:00.997Z,95.41
2018-12-22T10:04:00.991Z,95.6
2018-12-22T10:05:00.977Z,95.41
2018-12-22T10:06:00.968Z,95.6
2018-12-22T10:07:00.958Z,95.6
2018-12-22T10:08:00.948Z,95.41
2018-12-22T10:09:00.937Z,95.41
2018-12-22T10:10:00.928Z,95.41
2018-12-22T10:11:00.917Z,95.03
2018-12-22T10:12:00.907Z,95.51
2018-12-22T10:13:00.895Z,95.41
2018-12-22T10:14:00.885Z,95.41
2018-12-22T10:15:00.876Z,94.93
2018-12-22T10:16:00.866Z,94.93
2018-12-22T10:17:00.856Z,95.22
2018-12-22T10:18:00.854Z,94.84
2018-12-22T10:19:00.840Z,94.84
2018-12-22T10:20:00.825Z,94.74
2018-12-22T10:21:00.816Z,94.84
2018-12-22T10:22:00.805Z,94.37
2018-12-22T10:23:00.794Z,93.98
2018-12-22T10:24:00.790Z,94.27
2018-12-22T10:25:00.896Z,93.98
2018-12-22T10:26:00.768Z,93.98
2018-12-22T10:27:00.756Z,94.27
2018-12-22T10:28:00.748Z,93.89
2018-12-22T10:29:00.735Z,94.08
2018-12-22T10:30:00.975Z,93.98
2018-12-22T10:31:00.714Z,94.17
2018-12-22T10:32:00.705Z,93.98
2018-12-22T10:33:00.694Z,93.89
2018-12-22T10:34:00.689Z,94.08
2018-12-22T10:35:00.674Z,94.17
2018-12-22T10:36:00.664Z,94.27
2018-12-22T10:37:00.653Z,94.27
2018-12-22T10:38:00.644Z,93.98
2018-12-22T10:39:00.636Z,94.27
2018-12-22T10:40:00.627Z,94.27
2018-12-22T10:41:00.616Z,93.98
2018-12-22T10:42:00.606Z,94.17
2018-12-22T10:43:00.598Z,93.98
2018-12-22T10:44:00.589Z,93.98
2018-12-22T10:45:00.575Z,94.17
2018-12-22T10:46:00.566Z,94.65
2018-12-22T10:47:00.554Z,94.46
2018-12-22T10:48:00.546Z,94.37
2018-12-22T10:49:00.536Z,94.84
2018-12-22T10:50:00.529Z,94.56
2018-12-22T10:51:00.515Z,94.56
2018-12-22T10:52:00.506Z,94.46
2018-12-22T10:53:00.493Z,94.74
2018-12-22T10:54:00.483Z,94.65
2018-12-22T10:55:00.475Z,94.56
2018-12-22T10:56:00.465Z,94.17
2018-12-22T10:57:00.466Z,94.74
2018-12-22T10:58:02.445Z,94.98
2018-12-22T10:59:00.435Z,94.7
2018-12-22T11:00:00.423Z,94.03
2018-12-22T11:01:00.668Z,94.7
2018-12-22T11:02:00.404Z,93.55
2018-12-22T11:03:00.393Z,93.55
2018-12-22T11:04:00.385Z,93.41
2018-12-22T11:05:00.373Z,93.84
2018-12-22T11:06:00.364Z,93.74
2018-12-22T11:07:00.352Z,91.94
2018-12-22T11:08:00.342Z,91.99
2018-12-22T11:09:00.332Z,91.8
2018-12-22T11:10:00.321Z,91.99
2018-12-22T11:11:00.317Z,92.27
2018-12-22T11:12:00.300Z,91.51
2018-12-22T11:13:00.398Z,91.7
2018-12-22T11:14:00.279Z,91.22
2018-12-22T11:15:00.266Z,91.61
2018-12-22T11:16:00.256Z,92.27
2018-12-22T11:17:00.248Z,91.61
2018-12-22T11:18:00.234Z,92.36
2018-12-22T11:19:00.226Z,91.32
2018-12-22T11:20:00.267Z,91.61
2018-12-22T11:21:00.202Z,91.8
2018-12-22T11:22:00.193Z,92.08
2018-12-22T11:23:00.181Z,91.89
2018-12-22T11:24:00.169Z,92.36
2018-12-22T11:25:00.256Z,91.89
2018-12-22T11:26:00.151Z,92.56
2018-12-22T11:27:00.138Z,91.61
2018-12-22T11:28:00.131Z,92.18
2018-12-22T11:29:00.118Z,91.61
2018-12-22T11:30:00.270Z,91.8
2018-12-22T11:31:00.096Z,91.89
2018-12-22T11:32:00.082Z,91.99
2018-12-22T11:33:00.074Z,92.08
2018-12-22T11:34:00.066Z,91.7
2018-12-22T11:35:00.164Z,91.89
2018-12-22T11:36:00.037Z,91.42
2018-12-22T11:37:00.104Z,91.7
2018-12-22T11:38:00.022Z,91.32
2018-12-22T11:39:00.006Z,91.61
2018-12-22T11:39:59.999Z,91.8
2018-12-22T11:40:59.987Z,91.8
2018-12-22T11:41:59.974Z,91.13
2018-12-22T11:42:59.964Z,91.03
2018-12-22T11:43:59.953Z,91.89
2018-12-22T11:44:59.944Z,91.61
2018-12-22T11:45:59.931Z,91.61
2018-12-22T11:46:59.924Z,91.22
2018-12-22T11:47:59.911Z,90.94
2018-12-22T11:48:59.899Z,91.7
2018-12-22T11:49:59.890Z,91.61
2018-12-22T11:50:59.877Z,91.42
2018-12-22T11:51:59.867Z,91.61
2018-12-22T11:52:59.857Z,91.42
2018-12-22T11:53:59.846Z,90.94
2018-12-22T11:54:59.835Z,90.75
2018-12-22T11:55:59.822Z,91.13
2018-12-22T11:56:59.816Z,90.94
2018-12-22T11:57:59.803Z,91.89
2018-12-22T11:58:59.798Z,91.32
2018-12-22T11:59:59.781Z,90.61
2018-12-22T12:00:59.879Z,90.32
2018-12-22T12:01:59.761Z,90.37
2018-12-22T12:02:59.753Z,91.37
2018-12-22T12:03:59.744Z,90.42
2018-12-22T12:04:59.728Z,90.03
2018-12-22T12:05:59.717Z,89.94
2018-12-22T12:06:59.708Z,88.89
2018-12-22T12:07:59.696Z,88.89
2018-12-22T12:08:59.687Z,88.89
2018-12-22T12:09:59.677Z,89.75
2018-12-22T12:11:00.526Z,89.56
2018-12-22T12:11:59.654Z,89.84
2018-12-22T12:12:59.645Z,88.99
2018-12-22T12:13:59.636Z,88.79
2018-12-22T12:14:59.624Z,89.27
2018-12-22T12:15:59.656Z,89.08
2018-12-22T12:16:59.607Z,88.89
2018-12-22T12:17:59.614Z,88.42
2018-12-22T12:18:59.585Z,88.89
2018-12-22T12:19:59.591Z,88.32
2018-12-22T12:20:59.567Z,87.65
2018-12-22T12:21:59.553Z,88.13
2018-12-22T12:22:59.542Z,87.46
2018-12-22T12:24:00.493Z,88.23
2018-12-22T12:24:59.523Z,88.23
2018-12-22T12:25:59.510Z,87.46
2018-12-22T12:26:59.504Z,87.27
2018-12-22T12:27:59.491Z,87.75
2018-12-22T12:28:59.482Z,87.65
2018-12-22T12:29:59.473Z,87.46
2018-12-22T12:30:59.467Z,87.46
2018-12-22T12:31:59.451Z,87.56
2018-12-22T12:32:59.444Z,87.37
2018-12-22T12:33:59.432Z,87.94
2018-12-22T12:34:59.421Z,88.23
2018-12-22T12:35:59.416Z,88.04
2018-12-22T12:36:59.400Z,88.32
2018-12-22T12:37:59.394Z,88.04
2018-12-22T12:38:59.384Z,87.65
2018-12-22T12:39:59.371Z,88.32
2018-12-22T12:40:59.359Z,88.32
2018-12-22T12:41:59.354Z,88.89
2018-12-22T12:42:59.346Z,88.99
2018-12-22T12:43:59.336Z,89.75
2018-12-22T12:44:59.386Z,89.27
2018-12-22T12:45:59.308Z,90.13
2018-12-22T12:46:59.300Z,89.89
2018-12-22T12:47:59.291Z,90.28
2018-12-22T12:48:59.278Z,90.47
2018-12-22T12:49:59.270Z,90.66
2018-12-22T12:50:59.256Z,90.75
2018-12-22T12:51:59.246Z,91.42
2018-12-22T12:52:59.238Z,91.32
2018-12-22T12:53:59.227Z,91.42
2018-12-22T12:54:59.215Z,91.32